sensor_id;sensor_type;location;lat;lon;timestamp;temperature;humidity
41168;DHT22;26906;45.658;9.272;2023-10-13T05:38:30;20.40;99.90
41168;DHT22;26906;45.658;9.272;2023-10-13T05:41:18;20.40;99.90
41168;DHT22;26906;45.658;9.272;2023-10-13T05:44:03;20.40;99.90
41168;DHT22;26906;45.658;9.272;2023-10-13T05:46:47;20.40;99.90
41168;DHT22;26906;45.658;9.272;2023-10-13T05:49:26;20.50;99.90
41168;DHT22;26906;45.658;9.272;2023-10-13T05:52:12;20.50;99.90
41168;DHT22;26906;45.658;9.272;2023-10-13T05:54:56;20.50;99.90
41168;DHT22;26906;45.658;9.272;2023-10-13T05:57:40;20.40;99.90
41168;DHT22;26906;45.658;9.272;2023-10-13T06:00:25;20.40;99.90
41168;DHT22;26906;45.658;9.272;2023-10-13T06:03:09;20.40;99.90
41168;DHT22;26906;45.658;9.272;2023-10-13T06:05:54;20.40;99.90
41168;DHT22;26906;45.658;9.272;2023-10-13T06:08:38;20.50;99.90
41168;DHT22;26906;45.658;9.272;2023-10-13T06:11:22;20.60;99.90
41168;DHT22;26906;45.658;9.272;2023-10-13T06:14:23;20.70;99.90
41168;DHT22;26906;45.658;9.272;2023-10-13T06:17:08;20.70;99.90
41168;DHT22;26906;45.658;9.272;2023-10-13T06:19:52;20.80;99.90
41168;DHT22;26906;45.658;9.272;2023-10-13T06:22:36;20.80;99.90
41168;DHT22;26906;45.658;9.272;2023-10-13T06:25:21;20.90;99.90
41168;DHT22;26906;45.658;9.272;2023-10-13T06:28:05;20.90;99.90
41168;DHT22;26906;45.658;9.272;2023-10-13T06:30:59;20.90;99.90
41168;DHT22;26906;45.658;9.272;2023-10-13T06:33:26;21.00;99.90
41168;DHT22;26906;45.658;9.272;2023-10-13T06:35:56;21.00;99.90
41168;DHT22;26906;45.658;9.272;2023-10-13T06:38:22;21.00;99.90
41168;DHT22;26906;45.658;9.272;2023-10-13T06:40:49;21.00;99.90
41168;DHT22;26906;45.658;9.272;2023-10-13T06:43:16;21.00;99.90
41168;DHT22;26906;45.658;9.272;2023-10-13T06:45:43;21.10;99.90
41168;DHT22;26906;45.658;9.272;2023-10-13T06:48:16;21.10;99.90
41168;DHT22;26906;45.658;9.272;2023-10-13T06:50:50;21.00;99.90
41168;DHT22;26906;45.658;9.272;2023-10-13T06:53:18;21.10;99.90
41168;DHT22;26906;45.658;9.272;2023-10-13T06:55:44;21.10;99.90
41168;DHT22;26906;45.658;9.272;2023-10-13T06:58:13;21.10;99.90
41168;DHT22;26906;45.658;9.272;2023-10-13T07:00:43;21.20;99.90
41168;DHT22;26906;45.658;9.272;2023-10-13T07:03:19;21.30;99.90
41168;DHT22;26906;45.658;9.272;2023-10-13T07:05:45;21.30;99.90
41168;DHT22;26906;45.658;9.272;2023-10-13T07:08:15;21.30;99.90
41168;DHT22;26906;45.658;9.272;2023-10-13T07:10:55;21.30;99.90
41168;DHT22;26906;45.658;9.272;2023-10-13T07:13:43;21.40;99.90
41168;DHT22;26906;45.658;9.272;2023-10-13T07:16:15;21.40;99.90
41168;DHT22;26906;45.658;9.272;2023-10-13T07:18:41;21.40;99.90
41168;DHT22;26906;45.658;9.272;2023-10-13T07:21:17;21.50;99.90
41168;DHT22;26906;45.658;9.272;2023-10-13T07:23:50;21.50;99.90
41168;DHT22;26906;45.658;9.272;2023-10-13T07:26:27;21.60;99.90
41168;DHT22;26906;45.658;9.272;2023-10-13T07:28:53;21.70;99.90
41168;DHT22;26906;45.658;9.272;2023-10-13T07:31:19;21.60;99.90
41168;DHT22;26906;45.658;9.272;2023-10-13T07:33:46;21.70;99.90
41168;DHT22;26906;45.658;9.272;2023-10-13T07:36:12;21.70;99.90
41168;DHT22;26906;45.658;9.272;2023-10-13T07:38:45;21.80;99.90
41168;DHT22;26906;45.658;9.272;2023-10-13T07:41:25;21.80;99.90
41168;DHT22;26906;45.658;9.272;2023-10-13T07:43:56;21.80;99.90
41168;DHT22;26906;45.658;9.272;2023-10-13T07:46:25;21.80;99.90
41168;DHT22;26906;45.658;9.272;2023-10-13T07:48:57;21.90;99.90
41168;DHT22;26906;45.658;9.272;2023-10-13T07:51:34;21.90;99.90
41168;DHT22;26906;45.658;9.272;2023-10-13T07:54:13;22.00;99.90
41168;DHT22;26906;45.658;9.272;2023-10-13T07:56:47;22.00;99.90
41168;DHT22;26906;45.658;9.272;2023-10-13T07:59:13;22.10;99.90
41168;DHT22;26906;45.658;9.272;2023-10-13T08:01:40;22.10;99.90
41168;DHT22;26906;45.658;9.272;2023-10-13T08:04:11;22.20;99.90
41168;DHT22;26906;45.658;9.272;2023-10-13T08:06:37;22.30;99.90
41168;DHT22;26906;45.658;9.272;2023-10-13T08:09:05;22.30;99.90
41168;DHT22;26906;45.658;9.272;2023-10-13T08:11:37;22.40;99.90
41168;DHT22;26906;45.658;9.272;2023-10-13T08:14:05;22.50;99.90
41168;DHT22;26906;45.658;9.272;2023-10-13T08:16:39;22.60;99.90
41168;DHT22;26906;45.658;9.272;2023-10-13T08:19:22;22.70;99.90
41168;DHT22;26906;45.658;9.272;2023-10-13T08:21:57;22.70;99.90
41168;DHT22;26906;45.658;9.272;2023-10-13T08:24:27;22.60;99.90
41168;DHT22;26906;45.658;9.272;2023-10-13T08:27:02;22.60;99.90
41168;DHT22;26906;45.658;9.272;2023-10-13T08:29:44;22.70;99.90
41168;DHT22;26906;45.658;9.272;2023-10-13T08:32:23;22.70;99.90
41168;DHT22;26906;45.658;9.272;2023-10-13T08:34:58;22.80;99.90
41168;DHT22;26906;45.658;9.272;2023-10-13T08:37:29;22.80;99.90
41168;DHT22;26906;45.658;9.272;2023-10-13T08:39:59;22.80;99.90
41168;DHT22;26906;45.658;9.272;2023-10-13T08:42:32;22.80;99.90
41168;DHT22;26906;45.658;9.272;2023-10-13T08:47:52;22.90;99.90
41168;DHT22;26906;45.658;9.272;2023-10-13T08:58:37;23.30;99.90
41168;DHT22;26906;45.658;9.272;2023-10-13T09:01:36;23.30;99.90
41168;DHT22;26906;45.658;9.272;2023-10-13T09:04:18;23.50;99.90
41168;DHT22;26906;45.658;9.272;2023-10-13T09:06:51;23.60;99.90
41168;DHT22;26906;45.658;9.272;2023-10-13T09:09:30;23.80;99.90
41168;DHT22;26906;45.658;9.272;2023-10-13T09:12:29;23.80;99.90
41168;DHT22;26906;45.658;9.272;2023-10-13T09:15:08;23.80;99.90
41168;DHT22;26906;45.658;9.272;2023-10-13T09:17:48;23.70;99.90
41168;DHT22;26906;45.658;9.272;2023-10-13T09:20:27;23.80;99.90
41168;DHT22;26906;45.658;9.272;2023-10-13T09:23:19;23.80;99.90
41168;DHT22;26906;45.658;9.272;2023-10-13T09:25:52;23.90;99.90
41168;DHT22;26906;45.658;9.272;2023-10-13T09:28:34;23.90;99.90
41168;DHT22;26906;45.658;9.272;2023-10-13T09:31:03;23.90;99.90
41168;DHT22;26906;45.658;9.272;2023-10-13T09:33:36;24.00;99.90
41168;DHT22;26906;45.658;9.272;2023-10-13T09:36:06;24.00;99.90
41168;DHT22;26906;45.658;9.272;2023-10-13T09:38:36;24.10;99.90
41168;DHT22;26906;45.658;9.272;2023-10-13T09:41:06;24.20;99.90
41168;DHT22;26906;45.658;9.272;2023-10-13T09:43:45;24.30;99.90
41168;DHT22;26906;45.658;9.272;2023-10-13T09:46:15;24.30;99.90
41168;DHT22;26906;45.658;9.272;2023-10-13T09:48:47;24.50;99.90
41168;DHT22;26906;45.658;9.272;2023-10-13T09:51:30;24.70;99.90
41168;DHT22;26906;45.658;9.272;2023-10-13T09:54:10;24.80;99.90
41168;DHT22;26906;45.658;9.272;2023-10-13T09:56:56;25.10;99.90
41168;DHT22;26906;45.658;9.272;2023-10-13T09:59:35;25.60;99.90
41168;DHT22;26906;45.658;9.272;2023-10-13T10:02:09;25.50;99.90
41168;DHT22;26906;45.658;9.272;2023-10-13T10:04:36;25.30;99.90
41168;DHT22;26906;45.658;9.272;2023-10-13T10:07:10;25.30;99.90
41168;DHT22;26906;45.658;9.272;2023-10-13T10:09:36;25.40;99.90
41168;DHT22;26906;45.658;9.272;2023-10-13T10:15:20;25.90;99.90
41168;DHT22;26906;45.658;9.272;2023-10-13T10:18:18;26.00;99.90
41168;DHT22;26906;45.658;9.272;2023-10-13T10:20:48;26.00;99.90
41168;DHT22;26906;45.658;9.272;2023-10-13T10:23:28;26.00;99.90
41168;DHT22;26906;45.658;9.272;2023-10-13T10:26:15;26.20;99.90
41168;DHT22;26906;45.658;9.272;2023-10-13T10:28:44;26.20;99.90
41168;DHT22;26906;45.658;9.272;2023-10-13T10:31:10;26.30;99.90
41168;DHT22;26906;45.658;9.272;2023-10-13T10:33:45;26.60;99.90
41168;DHT22;26906;45.658;9.272;2023-10-13T10:36:22;26.50;99.90
41168;DHT22;26906;45.658;9.272;2023-10-13T10:38:54;26.50;99.90
41168;DHT22;26906;45.658;9.272;2023-10-13T10:41:31;26.50;99.90
41168;DHT22;26906;45.658;9.272;2023-10-13T10:44:12;26.50;99.90
41168;DHT22;26906;45.658;9.272;2023-10-13T10:46:56;26.50;99.90
41168;DHT22;26906;45.658;9.272;2023-10-13T10:49:26;26.60;99.90
41168;DHT22;26906;45.658;9.272;2023-10-13T10:52:01;26.70;99.90
41168;DHT22;26906;45.658;9.272;2023-10-13T10:54:30;26.90;99.90
41168;DHT22;26906;45.658;9.272;2023-10-13T10:57:01;27.10;99.90
41168;DHT22;26906;45.658;9.272;2023-10-13T10:59:44;27.30;99.90
41168;DHT22;26906;45.658;9.272;2023-10-13T11:02:10;27.30;99.90
41168;DHT22;26906;45.658;9.272;2023-10-13T11:04:41;26.90;99.90
41168;DHT22;26906;45.658;9.272;2023-10-13T11:07:25;26.90;99.90
41168;DHT22;26906;45.658;9.272;2023-10-13T11:09:51;27.00;99.90
41168;DHT22;26906;45.658;9.272;2023-10-13T11:12:36;27.00;99.90
41168;DHT22;26906;45.658;9.272;2023-10-13T11:15:06;27.10;99.90
41168;DHT22;26906;45.658;9.272;2023-10-13T11:17:41;27.20;99.90
41168;DHT22;26906;45.658;9.272;2023-10-13T11:20:17;27.30;99.90
41168;DHT22;26906;45.658;9.272;2023-10-13T11:22:51;27.50;99.90
41168;DHT22;26906;45.658;9.272;2023-10-13T11:25:25;27.40;99.90
41168;DHT22;26906;45.658;9.272;2023-10-13T11:28:29;27.30;99.90
41168;DHT22;26906;45.658;9.272;2023-10-13T11:30:58;27.10;99.90
41168;DHT22;26906;45.658;9.272;2023-10-13T11:33:25;27.10;99.90
41168;DHT22;26906;45.658;9.272;2023-10-13T11:35:56;27.10;99.90
41168;DHT22;26906;45.658;9.272;2023-10-13T11:38:42;27.00;99.90
41168;DHT22;26906;45.658;9.272;2023-10-13T11:41:13;27.00;99.90
41168;DHT22;26906;45.658;9.272;2023-10-13T11:43:52;27.00;99.90
41168;DHT22;26906;45.658;9.272;2023-10-13T11:46:19;27.00;99.90
41168;DHT22;26906;45.658;9.272;2023-10-13T11:49:10;26.90;99.90
41168;DHT22;26906;45.658;9.272;2023-10-13T11:51:39;26.90;99.90
41168;DHT22;26906;45.658;9.272;2023-10-13T11:54:09;26.80;99.90
41168;DHT22;26906;45.658;9.272;2023-10-13T11:56:34;26.80;99.90
41168;DHT22;26906;45.658;9.272;2023-10-13T11:59:00;26.60;99.90
41168;DHT22;26906;45.658;9.272;2023-10-13T12:01:31;26.50;99.90
41168;DHT22;26906;45.658;9.272;2023-10-13T12:04:15;26.70;99.90
41168;DHT22;26906;45.658;9.272;2023-10-13T12:06:59;27.00;99.90
41168;DHT22;26906;45.658;9.272;2023-10-13T12:09:44;27.30;99.90
41168;DHT22;26906;45.658;9.272;2023-10-13T12:12:26;27.30;99.90
41168;DHT22;26906;45.658;9.272;2023-10-13T12:14:52;27.20;99.90
41168;DHT22;26906;45.658;9.272;2023-10-13T12:17:19;27.00;99.90
41168;DHT22;26906;45.658;9.272;2023-10-13T12:20:03;27.00;99.90
41168;DHT22;26906;45.658;9.272;2023-10-13T12:22:31;27.10;99.90
41168;DHT22;26906;45.658;9.272;2023-10-13T12:25:11;27.50;99.90
41168;DHT22;26906;45.658;9.272;2023-10-13T12:27:55;27.80;99.90
41168;DHT22;26906;45.658;9.272;2023-10-13T12:30:32;28.00;99.90
41168;DHT22;26906;45.658;9.272;2023-10-13T12:33:18;27.90;99.90
41168;DHT22;26906;45.658;9.272;2023-10-13T12:35:58;28.10;99.90
41168;DHT22;26906;45.658;9.272;2023-10-13T12:38:52;28.00;99.90
41168;DHT22;26906;45.658;9.272;2023-10-13T12:41:38;28.30;99.90
41168;DHT22;26906;45.658;9.272;2023-10-13T12:44:22;28.40;99.90
41168;DHT22;26906;45.658;9.272;2023-10-13T12:47:06;28.20;99.90
41168;DHT22;26906;45.658;9.272;2023-10-13T12:49:51;28.30;99.90
41168;DHT22;26906;45.658;9.272;2023-10-13T12:52:33;28.30;99.90
41168;DHT22;26906;45.658;9.272;2023-10-13T12:54:59;28.30;99.90
41168;DHT22;26906;45.658;9.272;2023-10-13T12:57:31;28.40;99.90
41168;DHT22;26906;45.658;9.272;2023-10-13T12:59:58;28.50;99.90
41168;DHT22;26906;45.658;9.272;2023-10-13T13:02:25;28.50;99.90
41168;DHT22;26906;45.658;9.272;2023-10-13T13:04:51;28.70;99.90
41168;DHT22;26906;45.658;9.272;2023-10-13T13:07:22;28.70;99.90
41168;DHT22;26906;45.658;9.272;2023-10-13T13:09:48;28.80;99.90
41168;DHT22;26906;45.658;9.272;2023-10-13T13:12:15;28.70;99.90
41168;DHT22;26906;45.658;9.272;2023-10-13T13:14:42;28.70;99.90
41168;DHT22;26906;45.658;9.272;2023-10-13T13:17:13;28.60;99.90
41168;DHT22;26906;45.658;9.272;2023-10-13T13:19:38;28.70;99.90
41168;DHT22;26906;45.658;9.272;2023-10-13T13:22:05;28.60;99.90
41168;DHT22;26906;45.658;9.272;2023-10-13T13:24:39;28.60;99.90
41168;DHT22;26906;45.658;9.272;2023-10-13T13:27:14;28.70;99.90
41168;DHT22;26906;45.658;9.272;2023-10-13T13:29:41;28.60;99.90
41168;DHT22;26906;45.658;9.272;2023-10-13T13:32:07;28.50;99.90
41168;DHT22;26906;45.658;9.272;2023-10-13T13:34:43;28.40;99.90
41168;DHT22;26906;45.658;9.272;2023-10-13T13:37:09;28.30;99.90
41168;DHT22;26906;45.658;9.272;2023-10-13T13:39:38;28.20;99.90
41168;DHT22;26906;45.658;9.272;2023-10-13T13:42:09;28.10;99.90
41168;DHT22;26906;45.658;9.272;2023-10-13T13:44:35;27.80;99.90
41168;DHT22;26906;45.658;9.272;2023-10-13T13:47:04;27.70;99.90
41168;DHT22;26906;45.658;9.272;2023-10-13T13:49:41;27.70;99.90
41168;DHT22;26906;45.658;9.272;2023-10-13T13:52:12;27.80;99.90
41168;DHT22;26906;45.658;9.272;2023-10-13T13:54:43;27.90;99.90
41168;DHT22;26906;45.658;9.272;2023-10-13T13:57:09;28.00;99.90
41168;DHT22;26906;45.658;9.272;2023-10-13T13:59:37;28.00;99.90
41168;DHT22;26906;45.658;9.272;2023-10-13T14:02:02;27.90;99.90
41168;DHT22;26906;45.658;9.272;2023-10-13T14:04:46;28.00;99.90
41168;DHT22;26906;45.658;9.272;2023-10-13T14:07:13;27.70;99.90
41168;DHT22;26906;45.658;9.272;2023-10-13T14:09:40;27.30;99.90
41168;DHT22;26906;45.658;9.272;2023-10-13T14:12:09;27.00;99.90
41168;DHT22;26906;45.658;9.272;2023-10-13T14:14:54;26.80;99.90
41168;DHT22;26906;45.658;9.272;2023-10-13T14:17:25;26.70;99.90
41168;DHT22;26906;45.658;9.272;2023-10-13T14:20:01;26.80;99.90
41168;DHT22;26906;45.658;9.272;2023-10-13T14:22:35;27.00;99.90
41168;DHT22;26906;45.658;9.272;2023-10-13T14:25:03;27.20;99.90
41168;DHT22;26906;45.658;9.272;2023-10-13T14:27:35;27.30;99.90
41168;DHT22;26906;45.658;9.272;2023-10-13T14:30:01;27.30;99.90
41168;DHT22;26906;45.658;9.272;2023-10-13T14:32:28;27.40;99.90
41168;DHT22;26906;45.658;9.272;2023-10-13T14:34:57;27.40;99.90
41168;DHT22;26906;45.658;9.272;2023-10-13T14:37:23;27.40;99.90
41168;DHT22;26906;45.658;9.272;2023-10-13T14:39:55;27.30;99.90
41168;DHT22;26906;45.658;9.272;2023-10-13T14:42:26;27.40;99.90
41168;DHT22;26906;45.658;9.272;2023-10-13T14:44:52;27.10;99.90
41168;DHT22;26906;45.658;9.272;2023-10-13T14:47:22;26.90;99.90
41168;DHT22;26906;45.658;9.272;2023-10-13T14:49:52;27.00;99.90
41168;DHT22;26906;45.658;9.272;2023-10-13T14:52:23;27.00;99.90
41168;DHT22;26906;45.658;9.272;2023-10-13T14:54:49;27.10;99.90
41168;DHT22;26906;45.658;9.272;2023-10-13T14:57:21;27.10;99.90
41168;DHT22;26906;45.658;9.272;2023-10-13T14:59:51;27.20;99.90
41168;DHT22;26906;45.658;9.272;2023-10-13T15:02:17;27.20;99.90
41168;DHT22;26906;45.658;9.272;2023-10-13T15:04:43;27.20;99.90
41168;DHT22;26906;45.658;9.272;2023-10-13T15:07:08;27.20;99.90
41168;DHT22;26906;45.658;9.272;2023-10-13T15:09:34;27.20;99.90
41168;DHT22;26906;45.658;9.272;2023-10-13T15:12:00;27.10;99.90
41168;DHT22;26906;45.658;9.272;2023-10-13T15:14:31;27.00;99.90
41168;DHT22;26906;45.658;9.272;2023-10-13T15:16:58;27.00;99.90
41168;DHT22;26906;45.658;9.272;2023-10-13T15:19:26;26.90;99.90
41168;DHT22;26906;45.658;9.272;2023-10-13T15:21:51;26.90;99.90
41168;DHT22;26906;45.658;9.272;2023-10-13T15:24:18;26.90;99.90
41168;DHT22;26906;45.658;9.272;2023-10-13T15:26:46;26.80;99.90
41168;DHT22;26906;45.658;9.272;2023-10-13T15:29:19;26.80;99.90
41168;DHT22;26906;45.658;9.272;2023-10-13T15:31:51;26.70;99.90
41168;DHT22;26906;45.658;9.272;2023-10-13T15:34:26;26.60;99.90
41168;DHT22;26906;45.658;9.272;2023-10-13T15:36:53;26.70;99.90
41168;DHT22;26906;45.658;9.272;2023-10-13T15:39:21;26.60;99.90
41168;DHT22;26906;45.658;9.272;2023-10-13T15:41:53;26.60;99.90
41168;DHT22;26906;45.658;9.272;2023-10-13T15:44:21;26.50;99.90
41168;DHT22;26906;45.658;9.272;2023-10-13T15:46:53;26.30;99.90
41168;DHT22;26906;45.658;9.272;2023-10-13T15:49:19;26.10;99.90
41168;DHT22;26906;45.658;9.272;2023-10-13T15:51:45;26.10;99.90
41168;DHT22;26906;45.658;9.272;2023-10-13T15:54:12;26.00;99.90
41168;DHT22;26906;45.658;9.272;2023-10-13T15:56:44;25.90;99.90
41168;DHT22;26906;45.658;9.272;2023-10-13T15:59:10;25.60;99.90
41168;DHT22;26906;45.658;9.272;2023-10-13T16:01:38;25.50;99.90
41168;DHT22;26906;45.658;9.272;2023-10-13T16:04:05;25.50;99.90
41168;DHT22;26906;45.658;9.272;2023-10-13T16:06:46;25.60;99.90
41168;DHT22;26906;45.658;9.272;2023-10-13T16:09:16;25.50;99.90
41168;DHT22;26906;45.658;9.272;2023-10-13T16:11:52;25.40;99.90
41168;DHT22;26906;45.658;9.272;2023-10-13T16:14:18;25.30;99.90
41168;DHT22;26906;45.658;9.272;2023-10-13T16:16:48;25.20;99.90
41168;DHT22;26906;45.658;9.272;2023-10-13T16:19:15;25.10;99.90
41168;DHT22;26906;45.658;9.272;2023-10-13T16:21:46;24.90;99.90
41168;DHT22;26906;45.658;9.272;2023-10-13T16:24:13;24.90;99.90
41168;DHT22;26906;45.658;9.272;2023-10-13T16:26:47;24.70;99.90
41168;DHT22;26906;45.658;9.272;2023-10-13T16:29:18;24.70;99.90
41168;DHT22;26906;45.658;9.272;2023-10-13T16:31:45;24.50;99.90
41168;DHT22;26906;45.658;9.272;2023-10-13T16:34:15;24.30;99.90
41168;DHT22;26906;45.658;9.272;2023-10-13T16:36:44;24.30;99.90
41168;DHT22;26906;45.658;9.272;2023-10-13T16:39:11;24.20;99.90
41168;DHT22;26906;45.658;9.272;2023-10-13T16:41:40;24.10;99.90
41168;DHT22;26906;45.658;9.272;2023-10-13T16:44:06;24.00;99.90
41168;DHT22;26906;45.658;9.272;2023-10-13T16:46:38;23.90;99.90
41168;DHT22;26906;45.658;9.272;2023-10-13T16:49:05;23.80;99.90
41168;DHT22;26906;45.658;9.272;2023-10-13T16:51:35;23.70;99.90
41168;DHT22;26906;45.658;9.272;2023-10-13T16:54:01;23.70;99.90
41168;DHT22;26906;45.658;9.272;2023-10-13T16:56:27;23.60;99.90
41168;DHT22;26906;45.658;9.272;2023-10-13T16:58:53;23.50;99.90
41168;DHT22;26906;45.658;9.272;2023-10-13T17:01:22;23.40;99.90
41168;DHT22;26906;45.658;9.272;2023-10-13T17:03:48;23.30;99.90
41168;DHT22;26906;45.658;9.272;2023-10-13T17:06:15;23.30;99.90
41168;DHT22;26906;45.658;9.272;2023-10-13T17:08:42;23.30;99.90
41168;DHT22;26906;45.658;9.272;2023-10-13T17:11:09;23.20;99.90
41168;DHT22;26906;45.658;9.272;2023-10-13T17:13:38;23.10;99.90
41168;DHT22;26906;45.658;9.272;2023-10-13T17:16:13;23.00;99.90
41168;DHT22;26906;45.658;9.272;2023-10-13T17:18:40;22.90;99.90
41168;DHT22;26906;45.658;9.272;2023-10-13T17:21:20;22.90;99.90
41168;DHT22;26906;45.658;9.272;2023-10-13T17:23:49;22.80;99.90
41168;DHT22;26906;45.658;9.272;2023-10-13T17:26:18;22.80;99.90
41168;DHT22;26906;45.658;9.272;2023-10-13T17:28:44;22.70;99.90
41168;DHT22;26906;45.658;9.272;2023-10-13T17:31:10;22.60;99.90
41168;DHT22;26906;45.658;9.272;2023-10-13T17:33:36;22.60;99.90
41168;DHT22;26906;45.658;9.272;2023-10-13T17:36:09;22.60;99.90
41168;DHT22;26906;45.658;9.272;2023-10-13T17:38:35;22.50;99.90
41168;DHT22;26906;45.658;9.272;2023-10-13T17:41:02;22.50;99.90
41168;DHT22;26906;45.658;9.272;2023-10-13T17:43:31;22.40;99.90
41168;DHT22;26906;45.658;9.272;2023-10-13T17:46:07;22.40;99.90
41168;DHT22;26906;45.658;9.272;2023-10-13T17:48:33;22.30;99.90
41168;DHT22;26906;45.658;9.272;2023-10-13T17:51:02;22.30;99.90
41168;DHT22;26906;45.658;9.272;2023-10-13T17:53:29;22.30;99.90
41168;DHT22;26906;45.658;9.272;2023-10-13T17:58:33;22.20;99.90
41168;DHT22;26906;45.658;9.272;2023-10-13T18:01:05;22.20;99.90
41168;DHT22;26906;45.658;9.272;2023-10-13T18:03:31;22.10;99.90
41168;DHT22;26906;45.658;9.272;2023-10-13T18:05:59;22.00;99.90
41168;DHT22;26906;45.658;9.272;2023-10-13T18:08:25;22.00;99.90
41168;DHT22;26906;45.658;9.272;2023-10-13T18:10:53;22.00;99.90
41168;DHT22;26906;45.658;9.272;2023-10-13T18:13:20;21.90;99.90
41168;DHT22;26906;45.658;9.272;2023-10-13T18:15:46;21.90;99.90
41168;DHT22;26906;45.658;9.272;2023-10-13T18:18:12;21.90;99.90
41168;DHT22;26906;45.658;9.272;2023-10-13T18:20:39;21.90;99.90
41168;DHT22;26906;45.658;9.272;2023-10-13T18:23:05;22.00;99.90
41168;DHT22;26906;45.658;9.272;2023-10-13T18:25:36;22.00;99.90
41168;DHT22;26906;45.658;9.272;2023-10-13T18:28:02;22.00;99.90
41168;DHT22;26906;45.658;9.272;2023-10-13T18:30:29;22.00;99.90
41168;DHT22;26906;45.658;9.272;2023-10-13T18:32:57;22.00;99.90
41168;DHT22;26906;45.658;9.272;2023-10-13T18:35:24;21.90;99.90
41168;DHT22;26906;45.658;9.272;2023-10-13T18:37:50;21.80;99.90
41168;DHT22;26906;45.658;9.272;2023-10-13T18:40:15;21.80;99.90
41168;DHT22;26906;45.658;9.272;2023-10-13T18:42:44;21.80;99.90
41168;DHT22;26906;45.658;9.272;2023-10-13T18:45:21;21.80;99.90
41168;DHT22;26906;45.658;9.272;2023-10-13T18:47:51;21.90;99.90
41168;DHT22;26906;45.658;9.272;2023-10-13T18:50:21;22.00;99.90
41168;DHT22;26906;45.658;9.272;2023-10-13T18:52:50;21.80;99.90
41168;DHT22;26906;45.658;9.272;2023-10-13T18:55:16;21.80;99.90
41168;DHT22;26906;45.658;9.272;2023-10-13T18:57:42;21.80;99.90
41168;DHT22;26906;45.658;9.272;2023-10-13T19:00:13;21.80;99.90
41168;DHT22;26906;45.658;9.272;2023-10-13T19:02:50;21.80;99.90
41168;DHT22;26906;45.658;9.272;2023-10-13T19:05:16;21.80;99.90
41168;DHT22;26906;45.658;9.272;2023-10-13T19:07:42;21.80;99.90
41168;DHT22;26906;45.658;9.272;2023-10-13T19:10:08;21.70;99.90
41168;DHT22;26906;45.658;9.272;2023-10-13T19:12:44;21.70;99.90
41168;DHT22;26906;45.658;9.272;2023-10-13T19:15:23;21.60;99.90
41168;DHT22;26906;45.658;9.272;2023-10-13T19:17:52;21.50;99.90
41168;DHT22;26906;45.658;9.272;2023-10-13T19:20:18;21.60;99.90
41168;DHT22;26906;45.658;9.272;2023-10-13T19:22:44;21.70;99.90
41168;DHT22;26906;45.658;9.272;2023-10-13T19:25:18;21.70;99.90
41168;DHT22;26906;45.658;9.272;2023-10-13T19:27:45;21.80;99.90
41168;DHT22;26906;45.658;9.272;2023-10-13T19:30:10;21.70;99.90
41168;DHT22;26906;45.658;9.272;2023-10-13T19:32:36;21.70;99.90
41168;DHT22;26906;45.658;9.272;2023-10-13T19:35:06;21.70;99.90
41168;DHT22;26906;45.658;9.272;2023-10-13T19:37:32;21.50;99.90
41168;DHT22;26906;45.658;9.272;2023-10-13T19:39:59;21.50;99.90
41168;DHT22;26906;45.658;9.272;2023-10-13T19:42:24;21.40;99.90
41168;DHT22;26906;45.658;9.272;2023-10-13T19:44:50;21.50;99.90
41168;DHT22;26906;45.658;9.272;2023-10-13T19:47:16;21.40;99.90
41168;DHT22;26906;45.658;9.272;2023-10-13T19:49:43;21.40;99.90
41168;DHT22;26906;45.658;9.272;2023-10-13T19:52:10;21.40;99.90
41168;DHT22;26906;45.658;9.272;2023-10-13T19:54:36;21.30;99.90
41168;DHT22;26906;45.658;9.272;2023-10-13T19:57:07;21.30;99.90
41168;DHT22;26906;45.658;9.272;2023-10-13T19:59:36;21.20;99.90
41168;DHT22;26906;45.658;9.272;2023-10-13T20:02:08;21.20;99.90
41168;DHT22;26906;45.658;9.272;2023-10-13T20:04:37;21.20;99.90
41168;DHT22;26906;45.658;9.272;2023-10-13T20:07:03;21.30;99.90
41168;DHT22;26906;45.658;9.272;2023-10-13T20:09:31;21.30;99.90
41168;DHT22;26906;45.658;9.272;2023-10-13T20:11:57;21.30;99.90
41168;DHT22;26906;45.658;9.272;2023-10-13T20:14:24;21.20;99.90
41168;DHT22;26906;45.658;9.272;2023-10-13T20:16:50;21.10;99.90
41168;DHT22;26906;45.658;9.272;2023-10-13T20:19:16;21.20;99.90
41168;DHT22;26906;45.658;9.272;2023-10-13T20:21:42;21.20;99.90
41168;DHT22;26906;45.658;9.272;2023-10-13T20:24:09;21.10;99.90
